Time;durP1;ratioP1;P1;durP2;ratioP2;P2;SDS_P1;SDS_P2;PMS_P1;PMS_P2;Temp;Humidity;BMP_temperature;BMP_pressure;BME280_temperature;BME280_humidity;BME280_pressure;Samples;Min_cycle;Max_cycle;Signal;HPM_P1;HPM_P2
2022/12/06 00:01:31;;;;;;;5.90;3.50;;;3.50;99.90;;;2.73;100.00;97863.13;5043107;28;20423;-72
2022/12/06 00:04:02;;;;;;;4.97;2.63;;;3.50;99.90;;;2.86;100.00;97861.34;5043183;28;20049;-71
2022/12/06 00:06:32;;;;;;;5.38;3.30;;;3.50;99.90;;;2.82;100.00;97869.91;5057349;28;20051;-71
2022/12/06 00:08:59;;;;;;;5.05;2.55;;;3.50;99.90;;;2.93;100.00;97868.13;5054396;28;20459;-71
2022/12/06 00:11:30;;;;;;;5.10;2.80;;;3.40;99.90;;;3.00;100.00;97868.09;5044855;28;20131;-72
2022/12/06 00:14:04;;;;;;;6.53;2.80;;;3.50;99.90;;;2.86;100.00;97866.47;5043204;28;20049;-71
2022/12/06 00:16:33;;;;;;;5.80;3.05;;;3.50;99.90;;;2.74;100.00;97864.00;5044638;28;20052;-71
2022/12/06 00:19:01;;;;;;;7.07;3.58;;;3.50;99.90;;;2.67;100.00;97860.63;5043767;28;20135;-71
2022/12/06 00:21:31;;;;;;;5.38;2.97;;;3.50;99.90;;;2.73;100.00;97860.56;5039606;28;20068;-71
2022/12/06 00:24:09;;;;;;;5.10;2.92;;;3.40;99.90;;;2.68;100.00;97861.47;5042799;28;20423;-72
2022/12/06 00:26:39;;;;;;;4.40;2.60;;;3.40;99.90;;;2.78;100.00;97859.69;5039871;28;20053;-72
2022/12/06 00:29:11;;;;;;;3.85;2.50;;;3.40;99.90;;;2.69;100.00;97852.91;5040023;28;20060;-71
2022/12/06 00:31:38;;;;;;;4.70;2.70;;;3.40;99.90;;;2.56;100.00;97848.75;5042016;28;20403;-72
2022/12/06 00:34:06;;;;;;;3.60;2.10;;;3.30;99.90;;;2.57;100.00;97850.44;5053883;28;20434;-71
2022/12/06 00:36:37;;;;;;;6.13;2.17;;;3.40;99.90;;;2.65;100.00;97849.53;5043238;28;20059;-71
2022/12/06 00:39:12;;;;;;;3.17;1.83;;;3.40;99.90;;;2.47;100.00;97852.22;5042123;28;20045;-72
2022/12/06 00:41:40;;;;;;;7.13;2.03;;;3.40;99.90;;;2.68;100.00;97852.06;5042508;28;20067;-71
2022/12/06 00:44:07;;;;;;;2.50;1.30;;;3.30;99.90;;;2.61;100.00;97852.13;5040547;28;20075;-72
2022/12/06 00:46:35;;;;;;;4.07;1.75;;;3.30;99.90;;;2.47;100.00;97847.94;5042201;28;20052;-71
2022/12/06 00:49:05;;;;;;;3.17;1.83;;;3.30;99.90;;;2.52;100.00;97847.91;5041599;28;20474;-71
2022/12/06 00:51:34;;;;;;;2.33;1.50;;;3.30;99.90;;;2.60;100.00;97842.72;5042173;28;20155;-72
2022/12/06 00:54:01;;;;;;;3.95;1.92;;;3.30;99.90;;;2.51;100.00;97841.09;5040716;28;20056;-71
2022/12/06 00:56:28;;;;;;;3.65;2.00;;;3.30;99.90;;;2.61;100.00;97837.59;5041086;28;20290;-71
2022/12/06 00:58:55;;;;;;;4.53;2.38;;;3.30;99.90;;;2.59;100.00;97839.31;5041407;28;20048;-71
2022/12/06 01:01:26;;;;;;;3.58;2.20;;;3.20;99.90;;;2.44;100.00;97842.84;5038406;28;20046;-71
2022/12/06 01:03:58;;;;;;;4.70;2.90;;;3.20;99.90;;;2.51;100.00;97838.53;5037712;28;20037;-72
2022/12/06 01:06:30;;;;;;;4.60;2.72;;;3.20;99.90;;;2.40;100.00;97837.75;5039165;28;20045;-71
2022/12/06 01:09:01;;;;;;;4.93;2.88;;;3.20;99.90;;;2.62;100.00;97833.31;5042080;28;20045;-71
2022/12/06 01:11:29;;;;;;;5.13;3.40;;;3.20;99.90;;;2.47;100.00;97837.69;5057204;28;20044;-71
2022/12/06 01:13:56;;;;;;;5.90;3.45;;;3.20;99.90;;;2.38;100.00;97836.91;5041937;28;20133;-71
2022/12/06 01:16:27;;;;;;;6.88;3.17;;;3.20;99.90;;;2.30;100.00;97834.38;5039457;28;20053;-71
2022/12/06 01:18:57;;;;;;;6.28;3.78;;;3.20;99.90;;;2.44;100.00;97844.53;5042343;28;20440;-71
2022/12/06 01:21:26;;;;;;;6.88;3.85;;;3.20;99.90;;;2.43;100.00;97841.13;5052719;28;20534;-71
2022/12/06 01:23:53;;;;;;;7.15;3.75;;;3.20;99.90;;;2.47;100.00;97842.81;5042389;28;20045;-71
2022/12/06 01:26:25;;;;;;;6.07;3.50;;;3.20;99.90;;;2.71;100.00;97843.50;5051792;28;20049;-71
2022/12/06 01:28:53;;;;;;;5.82;3.88;;;3.20;99.90;;;2.53;100.00;97843.63;5036583;28;20091;-71
2022/12/06 01:31:20;;;;;;;5.50;3.40;;;3.20;99.90;;;2.68;100.00;97840.97;5040125;28;20083;-71
2022/12/06 01:33:47;;;;;;;6.28;3.33;;;3.20;99.90;;;2.74;100.00;97843.50;5056598;28;20053;-71
2022/12/06 01:36:23;;;;;;;6.50;3.00;;;3.20;99.90;;;2.71;100.00;97848.63;5042157;28;20045;-71
2022/12/06 01:38:52;;;;;;;6.18;3.75;;;3.20;99.90;;;2.69;100.00;97840.97;5042187;28;20106;-71
2022/12/06 01:41:23;;;;;;;8.15;4.47;;;3.20;99.90;;;2.43;100.00;97835.16;5044501;28;20467;-71
2022/12/06 01:43:50;;;;;;;8.57;3.90;;;3.20;99.90;;;2.41;100.00;97837.72;5044231;28;20064;-72
2022/12/06 01:46:43;;;;;;;6.28;3.67;;;3.20;99.90;;;2.55;100.00;97839.34;5036092;28;20047;-72
2022/12/06 01:49:13;;;;;;;7.13;3.30;;;3.10;99.90;;;2.90;100.00;97839.13;5044006;28;20056;-72
2022/12/06 01:51:55;;;;;;;7.18;3.85;;;3.10;99.90;;;2.92;100.00;97839.97;5043225;28;20518;-72
2022/12/06 01:54:24;;;;;;;6.68;4.30;;;3.20;99.90;;;2.97;100.00;97837.34;5045561;28;20139;-71
2022/12/06 01:56:53;;;;;;;7.72;4.95;;;3.20;99.90;;;2.87;100.00;97826.31;5045594;28;20056;-72
2022/12/06 01:59:21;;;;;;;5.90;3.38;;;3.20;99.90;;;3.18;100.00;97829.47;5061126;28;20053;-72
2022/12/06 02:01:48;;;;;;;9.25;4.65;;;3.30;99.90;;;2.59;100.00;97835.91;5042542;28;20126;-72
2022/12/06 02:04:17;;;;;;;8.25;4.63;;;3.30;99.90;;;2.86;100.00;97825.47;5059035;28;20049;-72
2022/12/06 02:06:45;;;;;;;8.52;4.88;;;3.20;99.90;;;2.73;100.00;97828.97;5043572;28;20045;-71
2022/12/06 02:09:14;;;;;;;7.82;4.93;;;3.20;99.90;;;2.53;100.00;97821.41;5057877;28;20056;-72
2022/12/06 02:11:42;;;;;;;7.50;4.38;;;3.10;99.90;;;2.66;100.00;97829.88;5044784;28;20052;-72
2022/12/06 02:14:16;;;;;;;10.73;5.22;;;3.10;99.90;;;2.57;100.00;97830.78;5043357;28;20132;-72
2022/12/06 02:17:22;;;;;;;7.10;4.70;;;3.10;99.90;;;2.67;100.00;97835.00;5033033;28;20049;-72
2022/12/06 02:20:15;;;;;;;8.07;4.47;;;3.00;99.90;;;2.60;100.00;97824.78;5045142;28;20095;-72
2022/12/06 02:22:57;;;;;;;;;;;3.00;99.90;;;2.62;100.00;97817.94;5039465;28;20063;-72
2022/12/06 02:25:58;;;;;;;8.80;5.30;;;3.00;99.90;;;2.63;100.00;97828.19;5058182;28;19921;-72
2022/12/06 02:29:09;;;;;;;8.55;5.32;;;3.00;99.90;;;2.40;100.00;97836.03;5043200;28;20128;-71
2022/12/06 02:31:57;;;;;;;9.45;5.05;;;3.00;99.90;;;2.40;100.00;97842.88;5042025;28;20049;-71
2022/12/06 02:34:56;;;;;;;9.73;5.47;;;3.00;99.90;;;2.37;100.00;97838.59;5055934;28;20539;-72
2022/12/06 02:37:41;;;;;;;10.52;5.50;;;3.00;99.90;;;2.36;100.00;97843.75;5041734;28;20051;-71
2022/12/06 02:40:16;;;;;;;8.32;4.47;;;3.00;99.90;;;2.54;100.00;97837.66;5041197;28;20490;-71
2022/12/06 02:42:53;;;;;;;8.48;5.38;;;3.00;99.90;;;2.54;100.00;97835.94;5044457;28;20270;-71
2022/12/06 02:45:31;;;;;;;7.75;5.03;;;3.00;99.90;;;2.43;100.00;97830.88;5041361;28;20060;-71
2022/12/06 02:48:02;;;;;;;8.40;4.90;;;3.00;99.90;;;2.36;100.00;97828.38;5040316;28;20044;-71
2022/12/06 02:50:42;;;;;;;9.02;5.70;;;3.00;99.90;;;2.30;100.00;97824.13;5060742;28;20052;-71
2022/12/06 02:53:16;;;;;;;11.07;6.55;;;3.00;99.90;;;2.21;100.00;97824.19;5048393;28;20960;-71
2022/12/06 02:55:44;;;;;;;8.65;5.68;;;3.00;99.90;;;2.42;100.00;97825.78;5062002;28;20529;-71
2022/12/06 02:58:11;;;;;;;9.85;6.20;;;2.90;99.90;;;2.26;100.00;97823.31;5043912;28;20056;-71
2022/12/06 03:00:44;;;;;;;9.60;6.35;;;2.90;99.90;;;2.21;100.00;97825.06;5047438;28;20402;-71
2022/12/06 03:03:52;;;;;;;9.80;5.80;;;2.90;99.90;;;2.22;100.00;97834.41;5047111;28;20086;-71
2022/12/06 03:06:40;;;;;;;8.60;5.93;;;2.90;99.90;;;2.47;100.00;97831.72;5046851;28;20041;-71
2022/12/06 03:09:38;;;;;;;9.07;4.97;;;3.00;99.90;;;2.67;100.00;97826.47;5045553;28;20262;-71
2022/12/06 03:12:53;;;;;;;13.05;7.55;;;3.00;99.90;;;2.72;100.00;97834.97;5041736;28;20434;-71
2022/12/06 03:15:41;;;;;;;9.00;5.60;;;3.00;99.90;;;2.68;100.00;97828.16;5037450;28;20049;-71
2022/12/06 03:18:21;;;;;;;7.22;5.00;;;3.10;99.90;;;2.71;100.00;97820.44;5046707;28;20615;-71
2022/12/06 03:20:53;;;;;;;7.70;5.25;;;3.10;99.90;;;2.65;100.00;97820.50;5046874;28;20518;-71
2022/12/06 03:23:28;;;;;;;7.75;4.28;;;3.20;99.90;;;2.80;100.00;97820.38;5036856;28;20045;-71
2022/12/06 03:25:59;;;;;;;7.38;4.25;;;3.20;99.90;;;2.92;100.00;97820.28;5058130;28;20061;-71
2022/12/06 03:28:29;;;;;;;6.10;3.75;;;3.20;99.90;;;2.78;100.00;97813.56;5058021;28;20144;-71
2022/12/06 03:31:02;;;;;;;6.22;3.70;;;3.20;99.90;;;3.02;100.00;97810.78;5033587;28;20143;-71
2022/12/06 03:33:32;;;;;;;6.75;4.28;;;3.20;99.90;;;2.66;100.00;97814.50;5045502;28;20080;-71
2022/12/06 03:36:00;;;;;;;6.95;3.70;;;3.20;99.90;;;2.64;100.00;97811.09;5060385;28;20401;-71
2022/12/06 03:38:55;;;;;;;10.27;4.68;;;3.20;99.90;;;2.59;100.00;97800.03;5061517;28;20049;-71
2022/12/06 03:41:28;;;;;;;6.45;3.63;;;3.20;99.90;;;2.56;100.00;97794.94;5062301;28;20044;-72
2022/12/06 03:43:55;;;;;;;6.07;3.83;;;3.20;99.90;;;2.77;100.00;97801.63;5057837;28;20048;-72
2022/12/06 03:46:39;;;;;;;8.60;4.45;;;3.10;99.90;;;2.64;100.00;97798.28;5046633;28;20041;-71
2022/12/06 03:49:16;;;;;;;5.10;3.28;;;3.10;99.90;;;2.59;100.00;97802.59;5044607;28;20061;-71
2022/12/06 03:51:44;;;;;;;6.43;4.28;;;3.10;99.90;;;2.51;100.00;97789.84;5045040;28;20695;-71
2022/12/06 03:54:11;;;;;;;6.50;3.90;;;3.10;99.90;;;2.43;100.00;97789.88;5044816;28;20114;-71
2022/12/06 03:56:38;;;;;;;9.82;4.20;;;3.10;99.90;;;2.22;100.00;97784.91;5045451;28;20053;-71
2022/12/06 03:59:08;;;;;;;6.63;4.40;;;3.00;99.90;;;2.31;100.00;97789.97;5043799;28;20494;-71
2022/12/06 04:01:36;;;;;;;7.28;4.47;;;3.00;99.90;;;2.35;100.00;97793.34;5057185;28;20055;-71
2022/12/06 04:04:03;;;;;;;5.85;4.00;;;3.00;99.90;;;2.31;100.00;97795.09;5045237;28;20149;-71
2022/12/06 04:06:30;;;;;;;7.28;4.50;;;3.00;99.90;;;2.28;100.00;97792.53;5046615;28;20040;-71
2022/12/06 04:09:51;;;;;;;10.00;4.70;;;2.90;99.90;;;2.20;100.00;97792.59;5046812;28;20053;-71
2022/12/06 04:11:45;;;;;;;7.40;4.47;;;2.90;99.90;;;2.12;100.00;97790.94;5041979;28;20750;-71
2022/12/06 04:14:12;;;;;;;6.60;4.35;;;2.90;99.90;;;2.38;100.00;97790.78;5045509;28;20049;-71
2022/12/06 04:19:25;;;;;;;8.15;4.65;;;2.90;99.90;;;2.38;100.00;97788.22;5045895;28;20060;-71
2022/12/06 04:24:37;;;;;;;7.78;4.65;;;2.90;99.90;;;2.29;100.00;97801.94;5044440;28;20398;-71
2022/12/06 04:40:51;;;;;;;10.02;6.22;;;2.80;99.90;;;2.16;100.00;97808.00;5045096;28;20055;-71
2022/12/06 04:46:04;;;;;;;10.18;5.90;;;2.90;99.90;;;2.34;100.00;97810.44;5044072;28;20526;-71
2022/12/06 04:48:31;;;;;;;9.38;5.47;;;3.00;99.90;;;2.36;100.00;97801.03;5044927;28;20197;-71
2022/12/06 04:50:58;;;;;;;6.68;4.70;;;3.00;99.90;;;2.44;100.00;97799.28;5045663;28;20063;-71
2022/12/06 04:53:25;;;;;;;9.70;5.53;;;2.90;99.90;;;2.29;100.00;97791.69;5043627;28;20049;-71
2022/12/06 04:55:52;;;;;;;11.73;7.30;;;3.00;99.90;;;2.04;100.00;97798.66;5045305;28;20051;-71
2022/12/06 04:58:19;;;;;;;11.77;7.07;;;3.00;99.90;;;2.14;100.00;97790.06;5044238;28;20041;-71
2022/12/06 05:00:45;;;;;;;10.27;6.28;;;3.00;99.90;;;2.10;100.00;97790.97;5043065;28;20057;-71
2022/12/06 05:03:13;;;;;;;7.95;5.53;;;2.90;99.90;;;2.16;100.00;97787.50;5044387;28;20522;-71
2022/12/06 05:05:41;;;;;;;9.15;5.65;;;2.90;99.90;;;2.19;100.00;97785.78;5044057;28;20053;-71
2022/12/06 05:08:08;;;;;;;13.90;6.63;;;2.90;99.90;;;2.05;100.00;97790.13;5042116;28;20133;-71
2022/12/06 05:10:36;;;;;;;10.98;7.30;;;2.90;99.90;;;2.13;100.00;97784.97;5044381;28;20063;-71
2022/12/06 05:13:04;;;;;;;7.45;5.40;;;2.90;99.90;;;2.23;100.00;97784.88;5042527;28;20056;-71
2022/12/06 05:15:32;;;;;;;8.82;5.75;;;2.90;99.90;;;2.18;100.00;97780.66;5057870;28;20045;-71
2022/12/06 05:17:59;;;;;;;9.82;5.53;;;2.80;99.90;;;2.18;100.00;97783.22;5043841;28;20041;-71
2022/12/06 05:20:26;;;;;;;17.88;8.18;;;2.80;99.90;;;2.00;100.00;97782.47;5044611;28;20048;-71
2022/12/06 05:22:53;;;;;;;24.30;10.05;;;2.80;99.90;;;2.08;100.00;97785.00;5045115;28;20140;-71
2022/12/06 05:25:20;;;;;;;13.15;7.55;;;2.70;99.90;;;1.87;100.00;97783.38;5044401;28;20041;-71
2022/12/06 05:27:47;;;;;;;16.48;7.68;;;2.80;99.90;;;2.11;100.00;97784.97;5040390;28;20066;-71
2022/12/06 05:30:14;;;;;;;8.70;5.75;;;2.80;99.90;;;2.02;100.00;97782.47;5045221;28;20055;-71
2022/12/06 05:32:41;;;;;;;11.57;7.22;;;2.80;99.90;;;2.07;100.00;97785.84;5042945;28;20037;-71
2022/12/06 05:35:08;;;;;;;8.95;6.07;;;2.70;99.90;;;2.23;100.00;97782.31;5044834;28;20049;-71
2022/12/06 05:37:35;;;;;;;16.60;6.75;;;2.70;99.90;;;2.31;100.00;97782.31;5042520;28;20045;-71
2022/12/06 05:40:03;;;;;;;9.95;6.45;;;2.70;99.90;;;1.99;100.00;97778.22;5039211;28;20044;-71
2022/12/06 05:42:30;;;;;;;11.30;6.97;;;2.80;99.90;;;2.12;100.00;97775.56;5043737;28;20049;-71
2022/12/06 05:44:57;;;;;;;10.43;6.30;;;2.80;99.90;;;2.33;100.00;97777.16;5044672;28;20760;-71
2022/12/06 05:47:24;;;;;;;12.00;6.70;;;2.80;99.90;;;2.26;100.00;97782.31;5045073;28;20147;-71
2022/12/06 05:49:51;;;;;;;10.93;7.57;;;2.80;99.90;;;2.29;100.00;97784.84;5045747;28;20045;-71
2022/12/06 05:52:18;;;;;;;11.65;7.40;;;2.70;99.90;;;2.11;100.00;97784.97;5040426;28;20060;-71
2022/12/06 05:54:45;;;;;;;11.27;7.38;;;2.70;99.90;;;2.14;100.00;97782.38;5046302;28;20055;-71
2022/12/06 05:57:11;;;;;;;10.98;6.40;;;2.70;99.90;;;2.22;100.00;97775.53;5045621;28;20072;-71
2022/12/06 05:59:38;;;;;;;14.07;7.85;;;2.70;99.90;;;2.14;100.00;97791.78;5044106;28;20045;-71
2022/12/06 06:02:06;;;;;;;10.38;7.05;;;2.70;99.90;;;1.99;100.00;97791.00;5044330;28;20049;-71
2022/12/06 06:04:33;;;;;;;13.38;8.38;;;2.70;99.90;;;2.07;100.00;97794.38;5040066;28;20061;-71
2022/12/06 06:07:00;;;;;;;14.10;8.20;;;2.80;99.90;;;2.42;100.00;97803.56;5043084;28;20132;-71
2022/12/06 06:09:27;;;;;;;16.80;8.23;;;2.80;99.90;;;2.29;100.00;97804.50;5043536;28;20045;-71
2022/12/06 06:11:55;;;;;;;14.07;9.20;;;2.80;99.90;;;2.37;100.00;97812.13;5044906;28;20449;-71
2022/12/06 06:14:22;;;;;;;10.63;7.22;;;2.90;99.90;;;2.57;100.00;97815.41;5041492;28;20049;-71
2022/12/06 06:16:50;;;;;;;11.25;7.28;;;2.90;99.90;;;2.70;100.00;97806.78;5056882;28;20515;-70
2022/12/06 06:19:18;;;;;;;11.13;7.80;;;2.90;99.90;;;2.44;100.00;97806.09;5042467;28;20071;-71
2022/12/06 06:21:45;;;;;;;12.77;8.23;;;2.90;99.90;;;2.22;100.00;97806.25;5043439;28;20117;-71
2022/12/06 06:24:12;;;;;;;11.60;7.38;;;2.90;99.90;;;2.47;100.00;97806.94;5045623;28;20041;-71
2022/12/06 06:26:39;;;;;;;12.57;7.70;;;2.90;99.90;;;2.75;100.00;97804.19;5046649;28;20051;-71
2022/12/06 06:29:06;;;;;;;11.23;7.97;;;3.00;99.90;;;2.64;100.00;97799.13;5048102;28;20060;-71
2022/12/06 06:31:34;;;;;;;11.50;8.07;;;3.00;99.90;;;2.71;100.00;97803.38;5048214;28;20057;-71
2022/12/06 06:34:01;;;;;;;11.57;7.57;;;3.00;99.90;;;2.76;100.00;97795.66;5045887;28;20482;-71
2022/12/06 06:36:28;;;;;;;8.57;6.22;;;3.10;99.90;;;2.91;100.00;97792.09;5046820;28;20117;-71
2022/12/06 06:38:54;;;;;;;10.98;7.00;;;3.10;99.90;;;2.63;100.00;97801.72;5047358;28;20047;-71
2022/12/06 06:41:21;;;;;;;12.93;8.13;;;3.10;99.90;;;2.75;100.00;97793.09;5047534;28;20057;-71
2022/12/06 06:43:48;;;;;;;12.80;8.15;;;3.10;99.90;;;2.70;100.00;97790.56;5049191;28;20052;-71
2022/12/06 06:46:15;;;;;;;15.32;8.27;;;3.10;99.90;;;2.75;100.00;97790.53;5050965;28;20049;-71
2022/12/06 06:48:42;;;;;;;16.05;7.65;;;3.00;99.90;;;2.64;100.00;97795.72;5042349;28;20196;-71
2022/12/06 06:51:12;;;;;;;11.15;7.38;;;3.00;99.90;;;2.65;100.00;97797.44;5039269;28;20068;-71
2022/12/06 06:53:39;;;;;;;13.50;8.35;;;3.00;99.90;;;2.82;100.00;97795.56;5063405;28;20061;-71
2022/12/06 06:56:07;;;;;;;13.82;7.97;;;3.00;99.90;;;2.96;100.00;97800.59;5047728;28;20558;-71
2022/12/06 06:58:34;;;;;;;13.63;8.63;;;3.10;99.90;;;2.77;100.00;97799.06;5047416;28;20041;-71
2022/12/06 07:01:04;;;;;;;11.18;7.55;;;3.10;99.90;;;2.85;100.00;97805.81;5043018;28;20056;-71
2022/12/06 07:03:32;;;;;;;13.30;8.23;;;3.00;99.90;;;2.84;100.00;97800.69;5058578;28;20991;-71
2022/12/06 07:06:07;;;;;;;13.05;7.90;;;3.00;99.90;;;2.93;100.00;97803.19;5046551;28;20044;-71
2022/12/06 07:08:34;;;;;;;12.82;7.72;;;3.10;99.90;;;2.98;100.00;97803.16;5043903;28;20056;-71
2022/12/06 07:11:01;;;;;;;14.77;9.60;;;3.10;99.90;;;2.71;100.00;97810.19;5044956;28;20049;-71
2022/12/06 07:13:28;;;;;;;12.90;8.32;;;3.20;99.90;;;2.76;100.00;97803.34;5048714;28;20053;-71
2022/12/06 07:15:57;;;;;;;13.75;8.52;;;3.10;99.90;;;2.82;100.00;97805.81;5044450;28;20049;-71
2022/12/06 07:18:25;;;;;;;12.90;7.45;;;3.10;99.90;;;2.65;100.00;97805.97;5048122;28;20052;-71
2022/12/06 07:21:02;;;;;;;12.65;8.55;;;3.10;99.90;;;2.68;100.00;97808.50;5045113;28;21484;-71
2022/12/06 07:23:31;;;;;;;14.45;9.30;;;3.10;99.90;;;2.73;100.00;97808.47;5044222;28;20449;-70
2022/12/06 07:26:08;;;;;;;11.27;7.47;;;3.00;99.90;;;2.83;100.00;97801.53;5063451;28;20132;-71
2022/12/06 07:28:38;;;;;;;13.20;8.23;;;3.00;99.90;;;2.88;100.00;97807.50;5048278;28;20061;-71
2022/12/06 07:31:16;;;;;;;17.73;10.23;;;3.10;99.90;;;2.83;100.00;97809.22;5048791;28;20056;-71
2022/12/06 07:33:45;;;;;;;15.27;9.63;;;3.10;99.90;;;2.32;100.00;97808.75;5045868;28;20118;-71
2022/12/06 07:36:14;;;;;;;16.15;9.07;;;3.10;99.90;;;2.51;100.00;97802.66;5049052;28;20053;-71
2022/12/06 07:38:43;;;;;;;21.30;10.82;;;3.10;99.90;;;2.36;100.00;97802.75;5045982;28;20056;-71
2022/12/06 07:46:46;;;;;;;13.52;8.52;;;3.00;99.90;;;2.70;100.00;97809.34;5048804;28;20139;-71
2022/12/06 07:49:15;;;;;;;15.10;9.35;;;3.00;99.90;;;2.44;100.00;97806.09;5042324;28;20054;-71
2022/12/06 07:51:44;;;;;;;21.52;11.15;;;3.10;99.90;;;2.72;100.00;97804.22;5045711;28;20495;-71
2022/12/06 07:54:12;;;;;;;12.98;7.63;;;3.00;99.90;;;2.81;100.00;97805.88;5047238;28;20064;-71
2022/12/06 07:56:40;;;;;;;17.08;9.88;;;3.10;99.90;;;2.59;100.00;97812.84;5046177;28;20470;-71
2022/12/06 07:59:07;;;;;;;17.05;10.38;;;3.20;99.90;;;2.61;100.00;97800.88;5045290;28;20153;-71
2022/12/06 08:01:34;;;;;;;16.30;9.60;;;3.20;99.90;;;2.77;100.00;97801.63;5045823;28;20070;-71
2022/12/06 08:04:03;;;;;;;12.50;9.05;;;3.20;99.90;;;2.99;100.00;97799.69;5045101;28;20093;-71
2022/12/06 08:06:32;;;;;;;13.57;7.90;;;3.20;99.90;;;3.07;100.00;97810.75;5047913;28;20044;-71
2022/12/06 08:08:59;;;;;;;13.52;8.63;;;3.30;99.90;;;3.06;100.00;97812.47;5058831;28;20052;-71
2022/12/06 08:11:27;;;;;;;12.48;7.55;;;3.40;99.90;;;3.08;100.00;97807.31;5040998;28;20393;-71
2022/12/06 08:13:54;;;;;;;13.18;8.02;;;3.40;99.90;;;3.11;100.00;97808.16;5049138;28;20533;-71
2022/12/06 08:16:21;;;;;;;14.45;8.77;;;3.50;99.90;;;3.17;100.00;97808.94;5048707;28;20502;-71
2022/12/06 08:18:48;;;;;;;15.57;9.27;;;3.40;99.90;;;3.07;100.00;97803.91;5047269;28;20061;-71
2022/12/06 08:21:15;;;;;;;12.98;7.10;;;3.50;99.90;;;2.92;100.00;97799.78;5043037;28;20059;-71
2022/12/06 08:23:42;;;;;;;11.02;7.15;;;3.50;99.90;;;3.05;100.00;97797.94;5047603;28;20064;-71
2022/12/06 08:26:13;;;;;;;11.80;7.75;;;3.50;99.90;;;3.04;100.00;97800.53;5048561;28;20843;-70
2022/12/06 08:28:42;;;;;;;11.77;7.93;;;3.60;99.90;;;2.86;100.00;97799.81;5043388;28;20049;-70
2022/12/06 08:31:17;;;;;;;11.23;7.50;;;3.50;99.90;;;3.04;100.00;97808.22;5047051;28;20738;-70
2022/12/06 08:33:45;;;;;;;13.68;7.05;;;3.60;99.90;;;3.16;100.00;97802.97;5046066;28;20502;-71
2022/12/06 08:36:16;;;;;;;11.45;6.97;;;3.60;99.90;;;3.37;100.00;97798.50;5042568;28;20075;-70
2022/12/06 08:38:44;;;;;;;10.63;7.10;;;3.70;99.90;;;3.39;100.00;97804.47;5045766;28;20426;-70
2022/12/06 08:44:00;;;;;;;12.55;8.02;;;3.70;99.90;;;2.84;100.00;97809.22;5047653;28;20053;-70
2022/12/06 08:46:29;;;;;;;14.50;8.10;;;3.70;99.90;;;2.84;100.00;97806.66;5045070;28;20050;-70
2022/12/06 08:48:56;;;;;;;10.05;7.25;;;3.70;99.90;;;3.16;100.00;97802.13;5046841;28;20588;-71
2022/12/06 08:51:23;;;;;;;9.48;6.70;;;3.60;99.90;;;3.33;100.00;97801.09;5046241;28;20052;-71
2022/12/06 08:53:54;;;;;;;7.82;5.30;;;3.70;99.90;;;3.52;100.00;97806.88;5043875;28;20059;-71
2022/12/06 08:56:23;;;;;;;13.15;7.88;;;3.90;99.90;;;3.39;100.00;97802.75;5047142;28;20132;-70
2022/12/06 08:58:52;;;;;;;11.77;6.95;;;4.00;99.90;;;3.81;100.00;97802.28;5060836;28;20048;-71
2022/12/06 09:01:26;;;;;;;10.05;6.80;;;4.00;99.90;;;3.55;100.00;97800.88;5044757;28;20045;-70
2022/12/06 09:04:02;;;;;;;10.35;6.95;;;4.10;99.90;;;3.34;100.00;97804.50;5049766;28;20549;-71
2022/12/06 09:06:29;;;;;;;13.95;7.30;;;4.10;99.90;;;2.83;100.00;97807.53;5057367;28;20424;-71
2022/12/06 09:08:57;;;;;;;13.93;7.95;;;4.10;99.90;;;2.96;100.00;97808.28;5047851;28;20064;-71
2022/12/06 09:11:25;;;;;;;12.43;8.10;;;4.10;99.90;;;2.95;100.00;97818.56;5024472;28;20501;-71
2022/12/06 09:13:52;;;;;;;13.85;7.50;;;4.00;99.90;;;3.02;100.00;97821.06;5038948;28;20404;-71
2022/12/06 09:16:21;;;;;;;11.95;7.88;;;4.00;99.90;;;2.65;100.00;97823.06;5045955;28;20088;-71
2022/12/06 09:18:50;;;;;;;12.23;7.13;;;4.00;99.90;;;3.09;100.00;97822.69;5046257;28;20053;-71
2022/12/06 09:21:22;;;;;;;10.70;6.63;;;3.90;99.90;;;2.88;100.00;97826.31;5044770;28;20422;-71
2022/12/06 09:23:50;;;;;;;9.13;6.40;;;3.90;99.90;;;2.94;100.00;97827.94;5045540;28;20057;-71
2022/12/06 09:26:17;;;;;;;9.20;6.10;;;3.90;99.90;;;3.22;100.00;97823.44;5042851;28;20049;-71
2022/12/06 09:28:48;;;;;;;13.10;7.38;;;4.00;99.90;;;3.17;100.00;97829.47;5044064;28;20418;-71
2022/12/06 09:31:16;;;;;;;9.65;7.05;;;3.90;99.90;;;3.11;100.00;97827.81;5040235;28;20079;-72
2022/12/06 09:33:44;;;;;;;11.57;7.10;;;4.00;99.90;;;2.86;100.00;97828.03;5047512;28;20057;-71
2022/12/06 09:36:28;;;;;;;14.18;7.75;;;4.10;99.90;;;2.90;100.00;97829.69;5043619;28;20053;-71
2022/12/06 09:39:09;;;;;;;;;;;4.10;99.90;;;3.11;100.00;97833.78;5043527;28;20055;-71
2022/12/06 09:41:48;;;;;;;12.82;8.70;;;4.10;99.90;;;2.95;100.00;97833.94;5046435;28;19924;-71
2022/12/06 09:44:58;;;;;;;12.48;7.82;;;4.00;99.90;;;3.02;100.00;97839.00;5044928;28;20059;-71
2022/12/06 09:47:48;;;;;;;12.20;7.65;;;4.00;99.90;;;2.81;100.00;97837.47;5045167;28;20053;-71
2022/12/06 09:50:52;;;;;;;12.50;6.60;;;4.00;99.90;;;3.14;100.00;97841.44;5043439;28;20494;-71
2022/12/06 09:54:03;;;;;;;9.95;6.25;;;4.00;99.90;;;2.89;100.00;97842.53;5045385;28;20392;-70
2022/12/06 09:56:53;;;;;;;11.20;6.53;;;4.00;99.90;;;2.99;100.00;97848.41;5046570;28;20149;-71
2022/12/06 09:59:51;;;;;;;9.60;6.35;;;4.10;99.90;;;3.69;100.00;97847.75;5049475;28;20049;-71
2022/12/06 10:02:41;;;;;;;9.40;5.88;;;4.20;99.90;;;3.68;100.00;97845.22;5046346;28;20045;-71
2022/12/06 10:05:54;;;;;;;10.52;6.47;;;4.30;99.90;;;3.91;100.00;97844.97;5048518;28;20049;-71
2022/12/06 10:08:42;;;;;;;7.10;4.93;;;4.40;99.90;;;4.03;100.00;97838.84;5047472;28;20041;-71
2022/12/06 10:12:01;;;;;;;6.32;4.05;;;4.50;99.90;;;3.98;100.00;97828.59;5064377;28;20114;-71
2022/12/06 10:14:57;;;;;;;7.18;4.50;;;4.60;99.90;;;3.93;100.00;97818.41;5049500;28;20107;-71
2022/12/06 10:17:41;;;;;;;6.05;4.13;;;4.70;99.90;;;4.03;100.00;97820.84;5047714;28;20056;-71
2022/12/06 10:20:20;;;;;;;6.05;4.00;;;4.70;99.90;;;4.35;100.00;97807.56;5045757;28;20128;-71
2022/12/06 10:23:28;;;;;;;7.68;4.97;;;4.80;99.90;;;4.31;100.00;97805.91;5047429;28;20856;-71
2022/12/06 10:26:16;;;;;;;7.63;4.32;;;4.80;99.90;;;4.03;100.00;97798.56;5044279;28;20483;-71
2022/12/06 10:28:47;;;;;;;6.15;3.92;;;4.90;99.90;;;4.18;100.00;97800.94;5048554;28;20060;-71
2022/12/06 10:31:27;;;;;;;6.30;3.45;;;5.00;99.90;;;4.41;100.00;97810.06;5048016;28;20053;-72
2022/12/06 10:34:00;;;;;;;7.13;3.83;;;5.10;99.90;;;4.49;100.00;97807.38;5047961;28;20099;-71
2022/12/06 10:36:41;;;;;;;6.93;4.40;;;5.10;99.90;;;4.48;100.00;97811.66;5048551;28;20485;-72
2022/12/06 10:39:37;;;;;;;7.40;4.22;;;5.10;99.90;;;4.12;100.00;97801.03;5047610;28;20073;-72
2022/12/06 10:42:16;;;;;;;6.93;4.38;;;5.10;99.90;;;4.17;100.00;97804.41;5047358;28;20049;-72
2022/12/06 10:44:54;;;;;;;6.20;3.80;;;5.10;99.90;;;4.55;100.00;97810.69;5065047;28;20053;-72
2022/12/06 10:47:32;;;;;;;7.25;4.35;;;5.10;99.90;;;4.38;100.00;97803.25;5048620;28;20045;-72
2022/12/06 10:50:12;;;;;;;7.15;3.83;;;5.10;99.90;;;4.27;100.00;97807.69;5061003;28;20060;-71
2022/12/06 10:53:07;;;;;;;6.00;3.45;;;4.90;99.90;;;4.39;100.00;97814.38;5048964;28;20059;-72
2022/12/06 10:55:45;;;;;;;6.80;3.40;;;5.00;99.90;;;4.29;100.00;97811.09;5049693;28;20045;-72
2022/12/06 10:58:38;;;;;;;4.22;2.75;;;5.10;99.90;;;4.38;100.00;97810.13;5049491;28;20048;-71
2022/12/06 11:01:15;;;;;;;5.75;3.30;;;5.20;99.90;;;4.61;100.00;97804.63;5048383;28;20049;-71
2022/12/06 11:04:11;;;;;;;13.93;7.43;;;5.30;99.90;;;4.36;100.00;97807.56;5042334;28;20049;-72
2022/12/06 11:06:47;;;;;;;6.03;3.40;;;5.40;99.90;;;4.63;100.00;97809.72;5049456;28;20049;-72
2022/12/06 11:09:43;;;;;;;5.90;3.00;;;5.30;99.90;;;4.74;100.00;97807.84;5049913;28;20053;-72
2022/12/06 11:12:34;;;;;;;7.03;4.38;;;5.30;99.90;;;4.65;100.00;97810.56;5046970;28;20054;-71
2022/12/06 11:15:22;;;;;;;6.75;3.72;;;5.40;99.90;;;4.75;100.00;97805.25;5063613;28;20155;-71
2022/12/06 11:18:04;;;;;;;9.43;6.10;;;5.30;99.90;;;4.66;100.00;97807.97;5048956;28;20055;-72
2022/12/06 11:21:00;;;;;;;10.68;8.07;;;5.30;99.90;;;4.66;100.00;97805.41;5046458;28;20130;-71